Time;durP1;ratioP1;P1;durP2;ratioP2;P2;SDS_P1;SDS_P2;PMS_P1;PMS_P2;Temp;Humidity;BMP_temperature;BMP_pressure;BME280_temperature;BME280_humidity;BME280_pressure;Samples;Min_cycle;Max_cycle;Signal;HPM_P1;HPM_P2
2023/03/10 00:02:21;;;;;;;0.47;0.40;;;11.00;99.90;;;;;;5001713;28;20032;-77
2023/03/10 00:04:53;;;;;;;0.15;0.15;;;11.00;99.90;;;;;;4997560;28;20297;-77
2023/03/10 00:07:19;;;;;;;0.95;0.95;;;11.00;99.90;;;;;;4997806;28;20033;-78
2023/03/10 00:09:45;;;;;;;0.20;0.20;;;11.00;99.90;;;;;;5000058;28;20110;-77
2023/03/10 00:12:12;;;;;;;0.20;0.20;;;11.00;99.90;;;;;;4999382;28;20080;-77
2023/03/10 00:14:38;;;;;;;1.93;1.83;;;11.00;99.90;;;;;;4986214;28;20058;-77
2023/03/10 00:17:04;;;;;;;0.55;0.55;;;11.00;99.90;;;;;;4988719;28;20265;-77
2023/03/10 00:19:30;;;;;;;0.20;0.20;;;11.10;99.90;;;;;;5002878;28;20049;-77
2023/03/10 00:21:56;;;;;;;0.00;0.00;;;11.10;99.90;;;;;;4991522;28;20030;-78
2023/03/10 00:24:21;;;;;;;0.03;0.03;;;11.00;99.90;;;;;;4994274;28;20030;-77
2023/03/10 00:26:51;;;;;;;0.20;0.20;;;11.10;99.90;;;;;;4997265;28;20030;-77
2023/03/10 00:29:17;;;;;;;0.10;0.10;;;11.10;99.90;;;;;;4999626;28;20036;-77
2023/03/10 00:31:44;;;;;;;0.57;0.57;;;11.10;99.90;;;;;;4994467;28;20104;-77
2023/03/10 00:34:10;;;;;;;0.60;0.60;;;11.00;99.90;;;;;;4997195;28;20065;-78
2023/03/10 00:36:36;;;;;;;2.33;1.65;;;10.90;99.90;;;;;;5002714;28;20529;-77
2023/03/10 00:39:03;;;;;;;0.30;0.30;;;10.80;99.90;;;;;;5001501;28;20045;-77
2023/03/10 00:41:31;;;;;;;1.20;1.02;;;10.80;99.90;;;;;;4994128;28;20036;-76
2023/03/10 00:43:58;;;;;;;1.65;1.08;;;10.60;99.90;;;;;;4996576;28;20046;-76
2023/03/10 00:46:25;;;;;;;0.52;0.52;;;10.40;99.90;;;;;;4981621;28;20509;-76
2023/03/10 00:48:51;;;;;;;2.75;1.35;;;10.40;99.90;;;;;;4969855;28;20039;-76
2023/03/10 00:51:18;;;;;;;0.10;0.10;;;10.40;99.90;;;;;;4999052;28;20045;-76
2023/03/10 00:53:44;;;;;;;0.80;0.75;;;10.50;99.90;;;;;;5001897;28;20052;-77
2023/03/10 00:56:20;;;;;;;1.55;1.45;;;10.30;99.90;;;;;;5001602;28;20034;-76
2023/03/10 00:58:48;;;;;;;0.25;0.22;;;10.30;99.90;;;;;;4992253;28;20034;-76
2023/03/10 01:01:22;;;;;;;0.57;0.57;;;10.20;99.90;;;;;;4993145;28;20038;-76
2023/03/10 01:03:50;;;;;;;0.63;0.63;;;10.30;99.90;;;;;;4994407;28;20037;-77
2023/03/10 01:06:15;;;;;;;1.92;1.75;;;10.40;99.90;;;;;;4988987;28;20033;-76
2023/03/10 01:08:41;;;;;;;0.10;0.10;;;10.50;99.90;;;;;;4989215;28;20030;-76
2023/03/10 01:11:07;;;;;;;0.82;0.70;;;10.50;99.90;;;;;;4995541;28;20022;-77
2023/03/10 01:13:33;;;;;;;3.63;0.75;;;10.60;99.90;;;;;;5001977;28;20038;-76
2023/03/10 01:15:58;;;;;;;0.90;0.90;;;10.50;99.90;;;;;;4996804;28;20033;-77
2023/03/10 01:18:24;;;;;;;0.45;0.45;;;10.60;99.90;;;;;;5003371;28;20026;-78
2023/03/10 01:20:50;;;;;;;0.10;0.10;;;10.60;99.90;;;;;;4991148;28;20022;-76
2023/03/10 01:23:20;;;;;;;2.63;1.33;;;10.70;99.90;;;;;;4998178;28;20034;-75
2023/03/10 01:25:47;;;;;;;0.63;0.63;;;10.70;99.90;;;;;;4986359;28;20038;-75
2023/03/10 01:28:13;;;;;;;2.72;0.95;;;10.70;99.90;;;;;;4993936;28;20112;-76
2023/03/10 01:30:39;;;;;;;2.80;1.35;;;10.70;99.90;;;;;;4999972;28;20046;-76
2023/03/10 01:33:05;;;;;;;1.87;0.93;;;10.70;99.90;;;;;;4993627;28;20037;-76
2023/03/10 01:35:31;;;;;;;3.22;0.40;;;10.60;99.90;;;;;;4988184;28;20265;-75
2023/03/10 01:37:57;;;;;;;0.88;0.88;;;10.40;99.90;;;;;;4993596;28;20044;-77
2023/03/10 01:40:25;;;;;;;0.17;0.17;;;10.30;99.90;;;;;;4998342;28;20124;-77
2023/03/10 01:43:11;;;;;;;1.63;1.00;;;10.20;99.90;;;;;;4988051;28;20507;-75
2023/03/10 01:45:36;;;;;;;1.77;1.67;;;10.20;99.90;;;;;;5002306;28;20053;-75
2023/03/10 01:48:02;;;;;;;0.35;0.35;;;10.10;99.90;;;;;;4984151;28;20026;-76
2023/03/10 01:50:28;;;;;;;1.38;0.52;;;10.10;99.90;;;;;;4994911;28;20038;-78
2023/03/10 01:52:57;;;;;;;0.38;0.38;;;10.10;99.90;;;;;;4995606;28;20501;-79
2023/03/10 01:55:32;;;;;;;0.73;0.73;;;10.10;99.90;;;;;;4985207;28;20070;-79
2023/03/10 01:57:58;;;;;;;4.10;2.05;;;10.00;99.90;;;;;;4987656;28;20118;-78
2023/03/10 02:00:25;;;;;;;3.00;1.20;;;10.00;99.90;;;;;;4993537;28;20125;-80
2023/03/10 02:03:24;;;;;;;0.10;0.10;;;9.90;99.90;;;;;;4989218;28;20085;-79
2023/03/10 02:05:57;;;;;;;3.20;0.52;;;9.80;99.90;;;;;;4990554;28;20478;-77
2023/03/10 02:08:28;;;;;;;0.10;0.10;;;9.80;99.90;;;;;;5000931;28;20072;-77
2023/03/10 02:10:55;;;;;;;0.20;0.20;;;9.70;99.90;;;;;;4996089;28;20025;-78
2023/03/10 02:13:21;;;;;;;0.55;0.50;;;9.70;99.90;;;;;;4985483;28;20052;-77
2023/03/10 02:15:47;;;;;;;0.10;0.10;;;9.70;99.90;;;;;;4997949;28;20720;-78
2023/03/10 02:18:15;;;;;;;0.30;0.30;;;9.70;99.90;;;;;;4977126;28;20573;-77
2023/03/10 02:20:53;;;;;;;0.57;0.57;;;9.60;99.90;;;;;;4986084;28;20490;-77
2023/03/10 02:23:38;;;;;;;0.10;0.10;;;9.60;99.90;;;;;;4996339;28;20143;-77
2023/03/10 02:26:25;;;;;;;3.85;2.15;;;9.60;99.90;;;;;;4993108;28;20027;-78
2023/03/10 02:28:52;;;;;;;;;;;9.60;99.90;;;;;;4985937;28;20061;-78
2023/03/10 02:31:19;;;;;;;0.25;0.25;;;9.60;99.90;;;;;;4994486;28;20000;-77
2023/03/10 02:33:45;;;;;;;0.10;0.10;;;9.60;99.90;;;;;;4995285;28;20065;-76
2023/03/10 02:36:14;;;;;;;1.65;1.55;;;9.60;99.90;;;;;;4989680;28;20482;-76
2023/03/10 02:38:40;;;;;;;0.65;0.65;;;9.50;99.90;;;;;;4992467;28;20052;-75
2023/03/10 02:41:32;;;;;;;0.10;0.10;;;9.50;99.90;;;;;;4991364;28;20479;-76
2023/03/10 02:44:00;;;;;;;0.13;0.13;;;9.50;99.90;;;;;;4996668;28;20045;-77
2023/03/10 02:46:27;;;;;;;0.10;0.10;;;9.50;99.90;;;;;;4984489;28;20129;-76
2023/03/10 02:48:53;;;;;;;2.70;0.70;;;9.40;99.90;;;;;;4986059;28;20030;-75
2023/03/10 02:51:23;;;;;;;0.10;0.10;;;9.40;99.90;;;;;;4992172;28;20025;-80
2023/03/10 02:53:49;;;;;;;2.72;1.20;;;9.20;99.90;;;;;;4994816;28;20120;-79
2023/03/10 02:56:14;;;;;;;1.80;0.85;;;9.50;99.90;;;;;;4990058;28;20026;-79
2023/03/10 02:58:40;;;;;;;0.10;0.10;;;9.50;99.90;;;;;;4995889;28;20389;-79
2023/03/10 03:01:06;;;;;;;0.88;0.38;;;9.60;99.90;;;;;;4968531;28;20030;-78
2023/03/10 03:03:32;;;;;;;0.10;0.10;;;9.60;99.90;;;;;;4994877;28;20034;-78
2023/03/10 03:05:58;;;;;;;2.00;0.60;;;9.70;99.90;;;;;;4986675;28;20084;-78
2023/03/10 03:08:24;;;;;;;0.20;0.20;;;9.80;99.90;;;;;;4988585;28;21565;-78
2023/03/10 03:10:51;;;;;;;6.57;0.70;;;9.90;99.90;;;;;;4997368;28;20636;-78
2023/03/10 03:13:16;;;;;;;0.17;0.17;;;9.90;99.90;;;;;;5000306;28;20034;-78
2023/03/10 03:15:42;;;;;;;0.68;0.68;;;9.90;99.90;;;;;;4985949;28;20034;-78
2023/03/10 03:18:08;;;;;;;1.88;1.17;;;9.90;99.90;;;;;;4996705;28;20080;-78
2023/03/10 03:20:36;;;;;;;4.87;1.33;;;10.10;99.90;;;;;;4986597;28;20124;-78
2023/03/10 03:23:02;;;;;;;1.58;1.48;;;10.10;99.90;;;;;;4988714;28;20031;-78
2023/03/10 03:25:29;;;;;;;1.25;0.65;;;10.10;99.90;;;;;;4982305;28;20042;-79
2023/03/10 03:27:55;;;;;;;0.10;0.10;;;10.00;99.90;;;;;;4994031;28;20034;-78
2023/03/10 03:30:24;;;;;;;0.00;0.00;;;9.80;99.90;;;;;;4996757;28;20034;-79
2023/03/10 03:32:50;;;;;;;4.65;2.17;;;9.50;99.90;;;;;;4985691;28;20037;-78
2023/03/10 03:35:21;;;;;;;0.30;0.30;;;9.20;99.90;;;;;;4995151;28;20034;-78
2023/03/10 03:37:47;;;;;;;0.15;0.15;;;9.10;99.90;;;;;;4974061;28;20049;-77
2023/03/10 03:40:13;;;;;;;0.20;0.20;;;9.00;99.90;;;;;;4988912;28;20022;-77
2023/03/10 03:42:44;;;;;;;9.35;2.58;;;8.70;99.90;;;;;;4992767;28;20627;-77
2023/03/10 03:45:11;;;;;;;0.10;0.10;;;8.70;99.90;;;;;;4990132;28;20074;-77
2023/03/10 03:47:37;;;;;;;5.53;0.75;;;8.50;99.90;;;;;;4996165;28;20535;-77
2023/03/10 03:50:04;;;;;;;0.43;0.43;;;8.30;99.90;;;;;;4998954;28;20034;-78
2023/03/10 03:52:30;;;;;;;0.10;0.10;;;8.40;99.90;;;;;;4964488;28;20031;-78
2023/03/10 03:54:56;;;;;;;0.30;0.30;;;8.40;99.90;;;;;;4991723;28;20030;-78
2023/03/10 03:57:22;;;;;;;5.07;3.33;;;8.30;99.90;;;;;;4996323;28;20555;-77
2023/03/10 03:59:47;;;;;;;0.10;0.10;;;8.30;99.90;;;;;;4996738;28;20716;-77
2023/03/10 04:02:13;;;;;;;1.95;1.85;;;8.40;99.90;;;;;;4972767;28;20049;-77
2023/03/10 04:04:39;;;;;;;4.13;1.17;;;8.30;99.90;;;;;;4998071;28;20491;-78
2023/03/10 04:07:04;;;;;;;1.80;1.02;;;8.40;99.90;;;;;;4987837;28;20723;-78
2023/03/10 04:09:30;;;;;;;0.28;0.28;;;8.30;99.90;;;;;;4992839;28;20042;-78
2023/03/10 04:11:56;;;;;;;1.77;1.17;;;8.40;99.90;;;;;;4988523;28;20022;-78
2023/03/10 04:14:22;;;;;;;0.10;0.10;;;8.40;99.90;;;;;;4990450;28;20108;-78
2023/03/10 04:16:47;;;;;;;0.35;0.32;;;8.40;99.90;;;;;;5004952;28;20030;-78
2023/03/10 04:19:13;;;;;;;0.13;0.13;;;8.30;99.90;;;;;;4985125;28;20065;-78
2023/03/10 04:21:39;;;;;;;0.10;0.10;;;8.30;99.90;;;;;;5009785;28;20811;-77
2023/03/10 04:24:06;;;;;;;0.10;0.10;;;8.30;99.90;;;;;;5013937;28;20088;-77
2023/03/10 04:26:32;;;;;;;0.55;0.55;;;8.30;99.90;;;;;;4996858;28;20129;-78
2023/03/10 04:28:58;;;;;;;0.30;0.30;;;8.20;99.90;;;;;;5003897;28;20080;-78
2023/03/10 04:31:24;;;;;;;0.10;0.10;;;8.20;99.90;;;;;;4994457;28;20121;-77
2023/03/10 04:33:50;;;;;;;10.45;1.95;;;8.30;99.90;;;;;;5005811;28;20115;-77
2023/03/10 04:36:17;;;;;;;0.32;0.32;;;8.10;99.90;;;;;;4996268;28;20482;-77
2023/03/10 04:38:43;;;;;;;0.43;0.43;;;8.10;99.90;;;;;;4998331;28;20026;-76
2023/03/10 04:41:09;;;;;;;0.77;0.77;;;8.10;99.90;;;;;;4984686;28;20054;-76
2023/03/10 04:43:36;;;;;;;1.02;1.02;;;8.10;99.90;;;;;;4999661;28;20690;-76
2023/03/10 04:46:02;;;;;;;0.23;0.23;;;8.00;99.90;;;;;;4963079;28;20058;-76
2023/03/10 04:48:28;;;;;;;0.10;0.10;;;7.90;99.90;;;;;;4977239;28;20037;-76
2023/03/10 04:51:02;;;;;;;0.47;0.47;;;7.90;99.90;;;;;;4991406;28;20026;-76
2023/03/10 04:53:28;;;;;;;0.10;0.10;;;7.80;99.90;;;;;;4988136;28;20674;-77
2023/03/10 04:55:54;;;;;;;0.40;0.40;;;7.70;99.90;;;;;;4999862;28;20037;-76
2023/03/10 04:58:21;;;;;;;0.10;0.10;;;7.60;99.90;;;;;;4981887;28;20033;-76
2023/03/10 05:00:47;;;;;;;1.50;1.33;;;7.60;99.90;;;;;;4994956;28;20064;-75
2023/03/10 05:03:14;;;;;;;1.35;0.82;;;7.70;99.90;;;;;;4996264;28;20113;-77
2023/03/10 05:05:39;;;;;;;0.10;0.10;;;7.60;99.90;;;;;;4986874;28;20413;-77
2023/03/10 05:08:06;;;;;;;0.43;0.43;;;7.90;99.90;;;;;;4996635;28;20349;-76
2023/03/10 05:10:31;;;;;;;8.23;1.90;;;7.80;99.90;;;;;;4983973;28;20030;-76
2023/03/10 05:12:57;;;;;;;0.30;0.30;;;7.80;99.90;;;;;;4997270;28;20034;-76
2023/03/10 05:15:23;;;;;;;0.10;0.10;;;7.90;99.90;;;;;;4997504;28;20030;-77
2023/03/10 05:17:49;;;;;;;0.10;0.10;;;7.90;99.90;;;;;;5002450;28;20065;-77
2023/03/10 05:20:15;;;;;;;0.30;0.30;;;7.90;99.90;;;;;;4999465;28;20026;-76
2023/03/10 05:22:41;;;;;;;14.30;2.65;;;7.90;99.90;;;;;;4995541;28;20053;-77
2023/03/10 05:25:09;;;;;;;0.87;0.87;;;8.00;99.90;;;;;;4994712;28;20037;-76
2023/03/10 05:27:36;;;;;;;0.52;0.52;;;8.00;99.90;;;;;;4995074;28;20026;-76
2023/03/10 05:30:04;;;;;;;2.35;1.92;;;8.00;99.90;;;;;;4977481;28;20026;-77
2023/03/10 05:32:32;;;;;;;4.50;1.23;;;8.00;99.90;;;;;;4988243;28;20522;-78
2023/03/10 05:34:58;;;;;;;0.22;0.22;;;8.00;99.90;;;;;;4993108;28;20027;-78
2023/03/10 05:37:24;;;;;;;1.55;1.33;;;7.80;99.90;;;;;;4999260;28;20053;-79
2023/03/10 05:39:49;;;;;;;0.20;0.20;;;7.90;99.90;;;;;;4995397;28;20030;-78
2023/03/10 05:42:15;;;;;;;0.30;0.30;;;7.90;99.90;;;;;;4996399;28;20382;-77
2023/03/10 05:44:41;;;;;;;0.10;0.10;;;7.80;99.90;;;;;;4979325;28;20057;-78
2023/03/10 05:47:06;;;;;;;0.10;0.10;;;7.90;99.90;;;;;;4996061;28;20080;-78
2023/03/10 05:49:32;;;;;;;13.80;2.47;;;7.60;99.90;;;;;;4985055;28;20036;-78
2023/03/10 05:51:58;;;;;;;0.30;0.30;;;7.60;99.90;;;;;;4989775;28;20018;-79
2023/03/10 05:54:24;;;;;;;0.88;0.82;;;7.80;99.90;;;;;;5003254;28;20705;-78
2023/03/10 05:56:50;;;;;;;0.47;0.45;;;7.70;99.90;;;;;;4995116;28;20104;-78
2023/03/10 05:59:15;;;;;;;1.58;1.55;;;7.80;99.90;;;;;;5002422;28;20036;-79
2023/03/10 06:01:41;;;;;;;0.38;0.38;;;7.70;99.90;;;;;;4993281;28;20034;-79
2023/03/10 06:04:07;;;;;;;0.10;0.10;;;7.70;99.90;;;;;;5000607;28;20120;-79
2023/03/10 06:06:33;;;;;;;6.80;1.83;;;7.60;99.90;;;;;;4994881;28;20026;-80
2023/03/10 06:08:59;;;;;;;6.45;2.80;;;7.60;99.90;;;;;;5000753;28;20045;-80
2023/03/10 06:11:25;;;;;;;0.40;0.40;;;7.60;99.90;;;;;;4984840;28;20037;-80
2023/03/10 06:13:51;;;;;;;3.13;1.33;;;7.70;99.90;;;;;;4973823;28;20589;-80
2023/03/10 06:16:17;;;;;;;0.35;0.35;;;7.60;99.90;;;;;;4995405;28;20109;-80
2023/03/10 06:18:43;;;;;;;0.28;0.28;;;7.60;99.90;;;;;;4996532;28;20060;-79
2023/03/10 06:21:11;;;;;;;0.30;0.30;;;7.60;99.90;;;;;;4983254;28;20037;-78
2023/03/10 06:23:37;;;;;;;1.85;1.27;;;7.70;99.90;;;;;;4985970;28;20358;-80
2023/03/10 06:26:05;;;;;;;1.85;1.48;;;7.80;99.90;;;;;;5001419;28;20648;-79
2023/03/10 06:28:35;;;;;;;12.43;2.13;;;7.80;99.90;;;;;;5001221;28;20400;-79
2023/03/10 06:31:03;;;;;;;0.63;0.40;;;7.80;99.90;;;;;;4978924;28;20034;-79
2023/03/10 06:33:31;;;;;;;0.22;0.22;;;7.70;99.90;;;;;;4998571;28;20030;-78
2023/03/10 06:35:56;;;;;;;;;;;7.60;99.90;;;;;;4992630;28;20026;-78
2023/03/10 06:38:23;;;;;;;3.73;0.97;;;7.70;99.90;;;;;;4987305;28;19917;-80
2023/03/10 06:40:49;;;;;;;0.60;0.60;;;7.80;99.90;;;;;;4999091;28;20091;-81
2023/03/10 06:43:15;;;;;;;0.68;0.68;;;7.80;99.90;;;;;;5001647;28;20037;-78
2023/03/10 06:45:42;;;;;;;0.20;0.20;;;7.90;99.90;;;;;;5013520;28;20116;-78
2023/03/10 06:48:08;;;;;;;0.10;0.10;;;8.00;99.90;;;;;;5016491;28;20025;-80
2023/03/10 06:50:34;;;;;;;1.77;1.67;;;8.00;99.90;;;;;;4993094;28;20033;-81
2023/03/10 06:53:00;;;;;;;2.40;0.65;;;8.00;99.90;;;;;;5004766;28;20037;-79
2023/03/10 06:55:26;;;;;;;0.32;0.32;;;8.10;99.90;;;;;;5011182;28;20045;-79
2023/03/10 06:57:51;;;;;;;0.40;0.40;;;8.10;99.90;;;;;;4992728;28;20529;-81
2023/03/10 07:00:18;;;;;;;0.80;0.80;;;8.20;99.90;;;;;;5006585;28;20034;-81
2023/03/10 07:02:44;;;;;;;0.52;0.52;;;8.10;99.90;;;;;;5006333;28;20064;-80
2023/03/10 07:05:11;;;;;;;1.85;1.08;;;8.20;99.90;;;;;;5003669;28;20116;-80
2023/03/10 07:07:37;;;;;;;2.10;1.00;;;8.20;99.90;;;;;;5001107;28;20034;-78
2023/03/10 07:10:04;;;;;;;0.80;0.80;;;8.20;99.90;;;;;;5010243;28;20530;-79
2023/03/10 07:12:31;;;;;;;0.35;0.35;;;8.40;99.90;;;;;;5009341;28;20018;-81
2023/03/10 07:14:57;;;;;;;0.40;0.40;;;8.30;99.90;;;;;;5004050;28;20487;-77
2023/03/10 07:17:22;;;;;;;0.20;0.20;;;8.30;99.90;;;;;;5000557;28;20573;-78
2023/03/10 07:19:48;;;;;;;2.92;2.05;;;8.40;99.90;;;;;;4987146;28;20034;-78
2023/03/10 07:22:14;;;;;;;0.10;0.10;;;8.40;99.90;;;;;;5009688;28;20037;-78
2023/03/10 07:24:39;;;;;;;0.20;0.20;;;8.30;99.90;;;;;;4996694;28;20045;-80
2023/03/10 07:27:05;;;;;;;0.17;0.17;;;8.20;99.90;;;;;;5001216;28;20034;-80
2023/03/10 07:29:31;;;;;;;0.40;0.40;;;8.20;99.90;;;;;;5001832;28;20450;-81
2023/03/10 07:31:57;;;;;;;3.92;1.88;;;8.20;99.90;;;;;;5013885;28;20025;-80
2023/03/10 07:34:22;;;;;;;1.85;1.75;;;8.20;99.90;;;;;;5017265;28;20100;-81
2023/03/10 07:36:48;;;;;;;0.47;0.25;;;8.20;99.90;;;;;;5016411;28;20465;-81
2023/03/10 07:39:14;;;;;;;0.10;0.10;;;8.10;99.90;;;;;;5016492;28;20117;-79
2023/03/10 07:41:40;;;;;;;0.20;0.20;;;7.90;99.90;;;;;;5013159;28;20087;-80
2023/03/10 07:44:06;;;;;;;6.32;2.08;;;7.90;99.90;;;;;;4998870;28;20584;-80
2023/03/10 07:46:31;;;;;;;2.17;1.08;;;7.80;99.90;;;;;;5014480;28;20033;-80
2023/03/10 07:48:59;;;;;;;3.65;3.30;;;7.90;99.90;;;;;;4990582;28;20124;-80
2023/03/10 07:51:25;;;;;;;2.65;2.10;;;7.70;99.90;;;;;;5006756;28;20018;-80
2023/03/10 07:53:51;;;;;;;3.00;1.98;;;7.70;99.90;;;;;;5010050;28;20760;-79
2023/03/10 07:56:17;;;;;;;0.43;0.43;;;7.80;99.90;;;;;;5006258;28;20030;-80
2023/03/10 07:58:43;;;;;;;1.40;0.52;;;7.80;99.90;;;;;;4993557;28;20261;-81
2023/03/10 08:01:17;;;;;;;0.93;0.93;;;7.90;99.90;;;;;;5005456;28;20022;-80
2023/03/10 08:03:44;;;;;;;10.10;1.83;;;8.10;99.90;;;;;;4997645;28;20022;-80
2023/03/10 08:06:16;;;;;;;0.10;0.10;;;8.20;99.90;;;;;;5007344;28;20096;-82
2023/03/10 08:08:41;;;;;;;0.45;0.40;;;8.10;99.90;;;;;;4992122;28;20595;-80
2023/03/10 08:11:09;;;;;;;0.30;0.30;;;8.10;99.90;;;;;;5012527;28;20033;-80
2023/03/10 08:13:35;;;;;;;2.30;1.17;;;8.40;99.90;;;;;;5006453;28;20022;-79
2023/03/10 08:16:02;;;;;;;0.10;0.10;;;8.60;99.90;;;;;;5005128;28;20026;-80
2023/03/10 08:18:29;;;;;;;1.38;1.38;;;8.50;99.90;;;;;;5005720;28;20053;-80
2023/03/10 08:20:55;;;;;;;1.75;0.50;;;8.60;99.90;;;;;;5007924;28;20033;-82
2023/03/10 08:23:21;;;;;;;3.88;0.28;;;8.70;99.90;;;;;;5006388;28;20034;-81
2023/03/10 08:25:47;;;;;;;0.98;0.98;;;8.50;99.90;;;;;;5005334;28;20508;-82
2023/03/10 08:28:13;;;;;;;1.40;1.30;;;8.30;99.90;;;;;;5004223;28;20097;-80
2023/03/10 08:30:39;;;;;;;0.10;0.10;;;8.30;99.90;;;;;;5003956;28;20038;-82
2023/03/10 08:33:07;;;;;;;8.23;2.30;;;8.40;99.90;;;;;;5005271;28;20513;-80
2023/03/10 08:35:34;;;;;;;0.82;0.82;;;8.40;99.90;;;;;;4986229;28;20066;-80
2023/03/10 08:38:00;;;;;;;0.47;0.47;;;8.70;99.90;;;;;;5004904;28;20017;-81
2023/03/10 08:40:26;;;;;;;1.43;0.40;;;8.80;99.90;;;;;;5003122;28;20084;-80
2023/03/10 08:42:52;;;;;;;5.07;1.75;;;8.90;99.90;;;;;;5002509;28;20038;-81
2023/03/10 08:45:17;;;;;;;0.35;0.35;;;8.70;99.90;;;;;;4999501;28;20089;-81
2023/03/10 08:47:43;;;;;;;0.10;0.10;;;8.90;99.90;;;;;;4995183;28;20643;-81
2023/03/10 08:50:10;;;;;;;1.55;1.45;;;8.70;99.90;;;;;;4993218;28;20587;-81
2023/03/10 08:52:36;;;;;;;;;;;9.00;99.90;;;;;;4982695;28;20027;-80
2023/03/10 08:55:04;;;;;;;1.80;1.03;;;9.20;99.90;;;;;;4983298;28;19917;-81
2023/03/10 08:57:30;;;;;;;0.10;0.10;;;9.30;99.90;;;;;;4985566;28;20102;-84
2023/03/10 08:59:55;;;;;;;0.10;0.10;;;9.80;99.90;;;;;;4992171;28;20081;-82
2023/03/10 09:02:21;;;;;;;1.67;0.55;;;10.00;99.90;;;;;;4994912;28;20030;-82
2023/03/10 09:04:48;;;;;;;1.42;1.33;;;9.70;99.90;;;;;;4987434;28;20033;-81
2023/03/10 09:07:14;;;;;;;0.63;0.63;;;9.60;99.90;;;;;;4992215;28;20113;-81
2023/03/10 09:09:40;;;;;;;0.20;0.20;;;9.90;99.90;;;;;;4973927;28;20030;-81
2023/03/10 09:12:07;;;;;;;0.45;0.45;;;10.20;99.90;;;;;;4967205;28;20034;-81
2023/03/10 09:14:34;;;;;;;0.35;0.35;;;10.00;99.90;;;;;;4988673;28;20029;-80
2023/03/10 09:16:59;;;;;;;2.08;1.92;;;9.90;99.90;;;;;;4987942;28;20785;-83
2023/03/10 09:19:25;;;;;;;2.30;0.35;;;10.00;99.90;;;;;;4967455;28;20030;-81
2023/03/10 09:21:51;;;;;;;0.32;0.32;;;10.00;99.90;;;;;;4966975;28;20398;-81
2023/03/10 09:24:18;;;;;;;2.17;2.08;;;10.00;99.90;;;;;;4987798;28;20074;-81
2023/03/10 09:26:43;;;;;;;0.32;0.32;;;10.10;99.90;;;;;;4976408;28;20030;-81
2023/03/10 09:29:09;;;;;;;0.17;0.17;;;10.00;99.90;;;;;;4987047;28;20630;-81
2023/03/10 09:31:36;;;;;;;0.38;0.38;;;10.10;99.90;;;;;;5003177;28;20800;-82
2023/03/10 09:34:04;;;;;;;0.70;0.70;;;10.20;99.90;;;;;;4981264;28;20114;-81
2023/03/10 09:36:30;;;;;;;0.88;0.88;;;10.40;99.90;;;;;;5002045;28;20101;-82
2023/03/10 09:38:59;;;;;;;4.72;1.27;;;10.40;99.90;;;;;;4997333;28;20563;-82
2023/03/10 09:42:00;;;;;;;0.10;0.10;;;10.40;99.90;;;;;;5000758;28;20095;-82
2023/03/10 09:45:06;;;;;;;0.22;0.22;;;10.50;99.90;;;;;;4959605;28;20513;-82
2023/03/10 09:47:51;;;;;;;22.38;0.85;;;10.30;99.90;;;;;;4939630;29;20360;-81
2023/03/10 09:50:32;;;;;;;1.55;0.85;;;10.40;99.90;;;;;;5000078;28;20046;-81
2023/03/10 09:53:06;;;;;;;0.28;0.28;;;10.30;99.90;;;;;;4997182;28;20022;-81
2023/03/10 09:55:43;;;;;;;0.55;0.55;;;10.50;99.90;;;;;;4976779;28;20064;-82
2023/03/10 09:58:29;;;;;;;0.50;0.50;;;10.70;99.90;;;;;;5001534;28;20456;-83
2023/03/10 10:00:55;;;;;;;0.17;0.17;;;10.80;99.90;;;;;;5001067;28;20030;-81
2023/03/10 10:03:38;;;;;;;4.07;0.52;;;10.50;99.90;;;;;;4990490;28;20037;-80
2023/03/10 10:06:05;;;;;;;1.02;0.95;;;10.30;99.90;;;;;;4990880;28;20034;-81
2023/03/10 10:08:40;;;;;;;0.10;0.10;;;10.40;99.90;;;;;;4996080;28;20120;-82
2023/03/10 10:11:14;;;;;;;1.35;1.13;;;10.30;99.90;;;;;;4992169;28;20104;-81
2023/03/10 10:13:40;;;;;;;0.20;0.20;;;10.40;99.90;;;;;;4993089;28;20054;-82
2023/03/10 10:16:36;;;;;;;0.35;0.35;;;10.50;99.90;;;;;;4993337;28;20037;-82
2023/03/10 10:19:25;;;;;;;0.97;0.97;;;10.80;99.90;;;;;;4999785;28;20036;-81
2023/03/10 10:22:09;;;;;;;2.72;0.55;;;10.50;99.90;;;;;;4997173;28;20288;-81
2023/03/10 10:24:35;;;;;;;2.63;1.00;;;10.50;99.90;;;;;;5001621;28;20038;-81
2023/03/10 10:27:00;;;;;;;0.20;0.20;;;10.70;99.90;;;;;;4990996;28;20053;-82
2023/03/10 10:29:35;;;;;;;0.60;0.60;;;10.50;99.90;;;;;;5000387;28;20079;-80
2023/03/10 10:32:14;;;;;;;0.30;0.30;;;10.20;99.90;;;;;;4983758;28;20026;-81
2023/03/10 10:34:44;;;;;;;0.10;0.10;;;10.30;99.90;;;;;;4991321;28;20563;-82
2023/03/10 10:37:25;;;;;;;0.10;0.10;;;10.30;99.90;;;;;;4998114;28;20076;-81
2023/03/10 10:39:53;;;;;;;3.03;2.17;;;10.60;99.90;;;;;;4992775;28;20037;-80
2023/03/10 10:42:26;;;;;;;0.63;0.63;;;10.50;99.90;;;;;;4998653;28;20025;-81
2023/03/10 10:44:57;;;;;;;0.17;0.17;;;10.50;99.90;;;;;;4961179;28;1179867;-81
2023/03/10 10:47:33;;;;;;;0.10;0.10;;;10.50;99.90;;;;;;4974413;28;20052;-82
2023/03/10 10:50:18;;;;;;;0.47;0.47;;;10.40;99.90;;;;;;5001377;28;20034;-81
2023/03/10 10:52:51;;;;;;;18.98;0.88;;;10.50;99.90;;;;;;4995268;28;20565;-81
2023/03/10 10:55:35;;;;;;;0.10;0.10;;;10.70;99.90;;;;;;4980074;28;20033;-83
2023/03/10 10:58:09;;;;;;;0.10;0.10;;;10.60;99.90;;;;;;4990966;28;20018;-81
2023/03/10 11:00:37;;;;;;;0.20;0.20;;;10.40;99.90;;;;;;4993440;28;20037;-81
2023/03/10 11:03:26;;;;;;;0.57;0.57;;;10.50;99.90;;;;;;4991085;28;20743;-81
2023/03/10 11:05:52;;;;;;;0.20;0.20;;;10.70;99.90;;;;;;4975388;28;20037;-81
2023/03/10 11:08:36;;;;;;;2.73;1.33;;;10.60;99.90;;;;;;4988534;28;20035;-80
2023/03/10 11:11:23;;;;;;;0.50;0.50;;;10.80;99.90;;;;;;4987710;28;20042;-80
2023/03/10 11:14:22;;;;;;;2.20;0.68;;;10.60;99.90;;;;;;4987598;28;20556;-81
2023/03/10 11:17:03;;;;;;;0.63;0.63;;;10.50;99.90;;;;;;4987387;28;20030;-82
2023/03/10 11:19:53;;;;;;;4.88;1.25;;;10.80;99.90;;;;;;4992111;28;20030;-81
2023/03/10 11:22:37;;;;;;;0.20;0.20;;;11.20;99.90;;;;;;4998501;28;20030;-81
2023/03/10 11:25:12;;;;;;;0.75;0.75;;;11.50;99.90;;;;;;4993334;28;20049;-82
2023/03/10 11:27:47;;;;;;;34.53;2.10;;;11.30;99.90;;;;;;4991628;28;20025;-81
2023/03/10 11:30:29;;;;;;;1.85;1.75;;;11.30;99.90;;;;;;5001989;28;20133;-81
2023/03/10 11:33:01;;;;;;;2.72;0.65;;;11.40;99.90;;;;;;5001186;28;20772;-81
2023/03/10 11:35:44;;;;;;;0.00;0.00;;;11.50;99.90;;;;;;5000358;28;20162;-81
2023/03/10 11:38:15;;;;;;;0.38;0.38;;;11.70;99.90;;;;;;5000433;28;20038;-82
2023/03/10 11:40:48;;;;;;;2.85;1.23;;;11.60;99.90;;;;;;5000877;28;20114;-81
2023/03/10 11:43:29;;;;;;;0.10;0.10;;;11.60;99.90;;;;;;5001424;28;20870;-82
2023/03/10 11:45:58;;;;;;;0.10;0.10;;;11.80;99.90;;;;;;5000433;28;20050;-81
2023/03/10 11:48:51;;;;;;;0.55;0.55;;;12.00;99.60;;;;;;5002063;28;20036;-80
2023/03/10 11:51:26;;;;;;;4.10;1.23;;;12.00;99.50;;;;;;4990570;28;20028;-81
2023/03/10 11:53:54;;;;;;;0.15;0.15;;;11.90;99.40;;;;;;4996594;28;20037;-81
2023/03/10 11:56:22;;;;;;;0.20;0.20;;;12.00;99.20;;;;;;5001633;28;20026;-82
2023/03/10 11:59:00;;;;;;;6.40;1.45;;;11.70;99.20;;;;;;5000648;28;20030;-81
2023/03/10 12:01:39;;;;;;;0.25;0.25;;;11.60;98.30;;;;;;4999688;28;20529;-80
2023/03/10 12:04:34;;;;;;;0.20;0.20;;;11.50;98.80;;;;;;5001628;28;20041;-81
2023/03/10 12:07:14;;;;;;;1.50;1.40;;;11.70;99.80;;;;;;4994340;28;20666;-81
2023/03/10 12:09:52;;;;;;;0.10;0.10;;;11.90;99.10;;;;;;4982530;28;20030;-83
2023/03/10 12:12:27;;;;;;;12.10;1.50;;;12.10;99.00;;;;;;4999408;28;20113;-81
2023/03/10 12:14:55;;;;;;;0.65;0.65;;;11.90;97.50;;;;;;5001349;28;20061;-81
2023/03/10 12:17:21;;;;;;;1.55;0.90;;;12.00;97.80;;;;;;5000797;28;20049;-80
2023/03/10 12:20:16;;;;;;;0.63;0.63;;;11.90;99.30;;;;;;5005643;28;20026;-82
2023/03/10 12:22:52;;;;;;;0.63;0.50;;;12.00;99.20;;;;;;4970829;28;20046;-81
2023/03/10 12:25:31;;;;;;;2.17;0.35;;;12.00;98.30;;;;;;5002720;28;20068;-82
2023/03/10 12:28:24;;;;;;;12.40;1.98;;;11.90;98.80;;;;;;4976033;28;20749;-80
2023/03/10 12:30:55;;;;;;;0.10;0.10;;;12.00;98.80;;;;;;5002365;28;20497;-82
2023/03/10 12:33:40;;;;;;;14.85;1.20;;;12.00;99.90;;;;;;5000867;28;20026;-81
2023/03/10 12:36:24;;;;;;;1.65;1.17;;;11.80;99.60;;;;;;5003504;28;20030;-81
2023/03/10 12:39:10;;;;;;;1.38;0.95;;;11.50;99.90;;;;;;5004387;28;20045;-82
2023/03/10 12:41:46;;;;;;;0.10;0.10;;;11.40;99.90;;;;;;4999131;28;20034;-80
2023/03/10 12:44:57;;;;;;;3.42;1.25;;;11.50;99.40;;;;;;5001551;28;20034;-81
2023/03/10 12:47:30;;;;;;;0.10;0.10;;;11.70;99.00;;;;;;4980835;28;20095;-82
2023/03/10 12:50:21;;;;;;;6.43;2.05;;;11.70;99.90;;;;;;4997963;28;20030;-81
2023/03/10 12:52:56;;;;;;;0.20;0.20;;;11.60;99.10;;;;;;4985523;28;20026;-80
2023/03/10 12:55:24;;;;;;;4.10;0.90;;;11.50;99.80;;;;;;4969675;28;20030;-81
2023/03/10 12:58:21;;;;;;;0.10;0.10;;;11.40;99.10;;;;;;4992685;28;20025;-81
2023/03/10 13:00:48;;;;;;;;;;;11.50;99.40;;;;;;4986217;28;20382;-81
2023/03/10 13:03:29;;;;;;;0.15;0.15;;;11.50;98.70;;;;;;4986970;28;20245;-82
2023/03/10 13:05:56;;;;;;;1.20;1.10;;;11.50;98.80;;;;;;4989176;28;20034;-82
2023/03/10 13:08:46;;;;;;;0.00;0.00;;;11.70;99.70;;;;;;4985987;28;20058;-81